createdAt,value
2023-02-05T00:02:38.385Z,6.30
2023-02-05T00:08:40.194Z,5.82
2023-02-05T00:14:41.926Z,5.50
2023-02-05T00:20:43.861Z,5.88
2023-02-05T00:26:45.625Z,5.55
2023-02-05T00:32:47.354Z,5.65
2023-02-05T00:38:49.716Z,5.85
2023-02-05T00:44:51.522Z,5.35
2023-02-05T00:50:54.088Z,5.50
2023-02-05T00:56:55.822Z,5.88
2023-02-05T01:02:57.569Z,5.38
2023-02-05T01:08:59.315Z,5.45
2023-02-05T01:15:01.908Z,5.25
2023-02-05T01:21:04.052Z,6.03
2023-02-05T01:27:05.860Z,6.80
2023-02-05T01:33:07.632Z,6.50
2023-02-05T01:39:09.744Z,6.25
2023-02-05T01:45:23.586Z,6.20
2023-02-05T01:51:28.836Z,5.95
2023-02-05T01:57:31.642Z,6.60
2023-02-05T02:03:33.811Z,5.88
2023-02-05T02:09:37.190Z,5.75
2023-02-05T02:15:40.226Z,6.35
2023-02-05T02:22:01.242Z,5.78
2023-02-05T02:28:26.648Z,5.38
2023-02-05T02:34:45.494Z,5.22
2023-02-05T02:40:53.963Z,5.63
2023-02-05T02:47:01.694Z,5.03
2023-02-05T02:53:08.804Z,5.23
2023-02-05T02:59:24.476Z,4.90
2023-02-05T03:05:27.933Z,4.55
2023-02-05T03:11:30.425Z,4.63
2023-02-05T03:17:33.604Z,5.13
2023-02-05T03:23:35.934Z,4.57
2023-02-05T03:29:44.569Z,4.88
2023-02-05T03:36:04.218Z,5.00
2023-02-05T03:42:31.753Z,5.35
2023-02-05T03:54:51.032Z,3.92
2023-02-05T04:00:58.569Z,4.00
2023-02-05T04:07:01.836Z,4.22
2023-02-05T04:13:03.960Z,4.47
2023-02-05T04:19:07.449Z,4.35
2023-02-05T04:25:09.367Z,3.97
2023-02-05T04:31:12.693Z,4.60
2023-02-05T04:37:16.599Z,4.28
2023-02-05T04:43:18.506Z,4.30
2023-02-05T04:49:20.686Z,3.55
2023-02-05T04:55:22.478Z,4.18
2023-02-05T05:01:24.445Z,3.83
2023-02-05T05:07:26.265Z,3.85
2023-02-05T05:13:28.010Z,3.75
2023-02-05T05:19:29.701Z,3.60
2023-02-05T05:25:31.788Z,3.63
2023-02-05T05:31:33.673Z,4.13
2023-02-05T05:37:35.392Z,3.70
2023-02-05T05:43:49.146Z,3.92
2023-02-05T05:49:51.024Z,4.30
2023-02-05T05:55:52.755Z,3.67
2023-02-05T06:01:54.636Z,3.88
2023-02-05T06:07:56.457Z,3.83
2023-02-05T06:13:58.196Z,3.95
2023-02-05T06:20:00.161Z,4.18
2023-02-05T06:26:02.300Z,4.63
2023-02-05T06:32:04.212Z,4.30
2023-02-05T06:38:06.021Z,4.68
2023-02-05T06:44:08.007Z,4.60
2023-02-05T06:50:09.921Z,4.03
2023-02-05T06:56:11.732Z,4.53
2023-02-05T07:02:14.468Z,4.35
2023-02-05T07:08:17.072Z,4.68
2023-02-05T07:14:19.165Z,4.75
2023-02-05T07:20:20.911Z,4.20
2023-02-05T07:26:23.786Z,4.82
2023-02-05T07:32:25.706Z,4.55
2023-02-05T07:38:27.437Z,5.07
2023-02-05T07:44:29.218Z,4.55
2023-02-05T07:50:30.974Z,4.65
2023-02-05T07:56:32.779Z,4.50
2023-02-05T08:02:34.499Z,4.82
2023-02-05T08:08:36.234Z,4.28
2023-02-05T08:14:37.973Z,4.50
2023-02-05T08:20:39.691Z,4.80
2023-02-05T08:26:41.832Z,5.25
2023-02-05T08:32:48.465Z,4.85
2023-02-05T08:38:50.197Z,4.90
2023-02-05T08:44:52.139Z,4.70
2023-02-05T08:50:53.877Z,4.93
2023-02-05T08:56:55.844Z,4.80
2023-02-05T09:02:57.577Z,4.90
2023-02-05T09:09:00.143Z,5.47
2023-02-05T09:15:01.992Z,5.35
2023-02-05T09:21:07.688Z,6.40
2023-02-05T09:27:09.528Z,6.80
2023-02-05T09:33:12.021Z,6.10
2023-02-05T09:39:25.656Z,6.10
2023-02-05T09:45:50.549Z,6.28
2023-02-05T09:51:59.759Z,6.47
2023-02-05T09:58:11.318Z,6.72
2023-02-05T10:04:14.888Z,6.72
2023-02-05T10:10:26.382Z,6.95
2023-02-05T10:16:41.260Z,7.03
2023-02-05T10:23:07.516Z,8.10
2023-02-05T10:29:31.186Z,7.65
2023-02-05T10:35:48.002Z,8.18
2023-02-05T10:41:58.960Z,7.10
2023-02-05T10:48:08.735Z,7.63
2023-02-05T10:54:20.607Z,8.00
2023-02-05T11:00:22.976Z,7.40
2023-02-05T11:06:27.640Z,7.78
2023-02-05T11:12:32.511Z,7.68
2023-02-05T11:18:43.934Z,8.02
2023-02-05T11:24:45.736Z,8.05
2023-02-05T11:30:51.229Z,8.18
2023-02-05T11:36:57.769Z,11.50
2023-02-05T11:43:27.392Z,7.70
2023-02-05T11:49:38.768Z,7.68
2023-02-05T11:55:40.961Z,7.05
2023-02-05T12:01:44.263Z,8.55
2023-02-05T12:08:04.774Z,7.05
2023-02-05T12:14:21.576Z,7.75
2023-02-05T12:20:34.898Z,8.07
2023-02-05T12:26:40.755Z,7.70
2023-02-05T12:32:48.354Z,7.97
2023-02-05T12:39:17.388Z,7.82
2023-02-05T12:45:58.967Z,8.10
2023-02-05T12:52:15.765Z,8.90
2023-02-05T12:58:19.833Z,8.67
2023-02-05T13:04:29.743Z,8.90
2023-02-05T13:10:44.592Z,10.63
2023-02-05T13:17:02.944Z,8.68
2023-02-05T13:23:23.621Z,8.93
2023-02-05T13:29:30.813Z,9.50
2023-02-05T13:35:40.904Z,9.07
2023-02-05T13:41:45.916Z,9.63
2023-02-05T13:48:22.341Z,9.43
2023-02-05T13:55:07.764Z,12.98
2023-02-05T14:01:21.929Z,8.15
2023-02-05T14:07:31.156Z,7.65
2023-02-05T14:13:34.532Z,8.57
2023-02-05T14:19:45.399Z,10.35
2023-02-05T14:26:05.263Z,10.05
2023-02-05T14:32:31.370Z,11.02
2023-02-05T14:38:34.281Z,11.23
2023-02-05T14:44:39.353Z,12.02
2023-02-05T14:50:41.373Z,11.05
2023-02-05T14:56:47.991Z,13.18
2023-02-05T15:02:55.845Z,13.63
2023-02-05T15:09:13.367Z,13.45
2023-02-05T15:21:53.277Z,14.93
2023-02-05T15:28:03.090Z,18.75
2023-02-05T15:34:42.559Z,14.40
2023-02-05T15:40:44.996Z,15.98
2023-02-05T15:46:47.891Z,16.85
2023-02-05T15:52:49.704Z,15.18
2023-02-05T15:58:59.359Z,14.38
2023-02-05T16:05:18.054Z,14.88
2023-02-05T16:11:28.024Z,14.20
2023-02-05T16:17:38.254Z,14.95
2023-02-05T16:23:45.234Z,14.65
2023-02-05T16:29:52.634Z,14.23
2023-02-05T16:42:05.746Z,15.63
2023-02-05T16:48:24.734Z,18.30
2023-02-05T16:54:32.927Z,17.73
2023-02-05T17:00:35.001Z,16.23
2023-02-05T17:06:38.307Z,15.82
2023-02-05T17:12:46.482Z,16.50
2023-02-05T17:18:59.706Z,16.38
2023-02-05T17:25:02.137Z,20.38
2023-02-05T17:31:03.964Z,20.98
2023-02-05T17:37:05.760Z,22.08
2023-02-05T17:43:07.837Z,23.77
2023-02-05T17:49:09.944Z,21.48
2023-02-05T17:55:17.192Z,25.88
2023-02-05T18:01:19.460Z,18.35
2023-02-05T18:07:40.593Z,16.90
2023-02-05T18:13:42.392Z,17.05
2023-02-05T18:19:44.239Z,17.27
2023-02-05T18:25:45.958Z,17.90
2023-02-05T18:31:48.886Z,17.55
2023-02-05T18:37:50.688Z,18.88
2023-02-05T18:43:56.312Z,18.02
2023-02-05T18:49:58.079Z,17.00
2023-02-05T18:56:05.047Z,16.52
2023-02-05T19:02:10.870Z,17.73
2023-02-05T19:08:12.730Z,18.15
2023-02-05T19:14:16.553Z,19.55
2023-02-05T19:20:18.293Z,19.55
2023-02-05T19:26:23.035Z,19.63
2023-02-05T19:32:24.772Z,20.25
2023-02-05T19:38:28.146Z,20.60
2023-02-05T19:44:32.149Z,21.45
2023-02-05T19:50:34.463Z,19.75
2023-02-05T19:56:38.052Z,21.08
2023-02-05T20:02:40.041Z,20.58
2023-02-05T20:08:42.956Z,20.45
2023-02-05T20:14:44.714Z,22.90
2023-02-05T20:20:46.796Z,24.10
2023-02-05T20:26:48.837Z,23.75
2023-02-05T20:32:50.781Z,22.25
2023-02-05T20:38:57.014Z,23.98
2023-02-05T20:44:58.718Z,23.45
2023-02-05T20:51:09.204Z,26.90
2023-02-05T20:57:11.041Z,22.98
2023-02-05T21:03:12.765Z,22.30
2023-02-05T21:09:15.564Z,21.80
2023-02-05T21:15:17.526Z,27.38
2023-02-05T21:21:22.322Z,24.45
2023-02-05T21:27:25.068Z,22.70
2023-02-05T21:33:26.800Z,24.95
2023-02-05T21:39:28.524Z,22.92
2023-02-05T21:45:30.301Z,23.45
2023-02-05T21:51:34.673Z,26.13
2023-02-05T21:57:36.522Z,27.98
2023-02-05T22:03:38.458Z,27.50
2023-02-05T22:09:40.230Z,29.08
2023-02-05T22:15:41.953Z,29.10
2023-02-05T22:21:43.848Z,29.27
2023-02-05T22:27:45.606Z,31.23
2023-02-05T22:33:48.952Z,30.98
2023-02-05T22:39:50.677Z,33.53
2023-02-05T22:45:52.439Z,30.35
2023-02-05T22:51:54.276Z,29.80
2023-02-05T22:57:55.988Z,30.40
2023-02-05T23:03:58.692Z,30.25
2023-02-05T23:10:00.386Z,30.85
2023-02-05T23:16:11.738Z,28.98
2023-02-05T23:22:13.524Z,32.38
2023-02-05T23:28:15.736Z,31.40
2023-02-05T23:34:17.648Z,33.83
2023-02-05T23:40:19.563Z,35.72
2023-02-05T23:46:21.327Z,36.78
2023-02-05T23:52:23.098Z,37.75
2023-02-05T23:58:26.008Z,36.85
